Steele, Alabama
Current Conditions -  °F | °C
As of 12:15 PM on Thursday 27 Nov 2014 (Local Time) from K8A0 Reporting Station
Overcast Overcast  
Wind Chill: 35°   Ceiling: 3700
Heat Index: 41°   Visibility: 10mi
Dew Point: 32°   Wind: 9mph
Humidity: 70%   Direction: 340°NNW
Pressure: 30.34"   Gusts: 13mph
Location:  33.94°N, 86.2°W
Report Text: K8A0 271815Z AUTO 34008G11KT 10SM OVC037 05/00 A3034 RMK AO2
Loading
Personal Weather Stations






























Interactive Weather Map New forecast layout! Learn more

10-Day Weather Forecast

Advertisements
Track Severe Weather on mobile